Time;durP1;ratioP1;P1;durP2;ratioP2;P2;SDS_P1;SDS_P2;PMS_P1;PMS_P2;Temp;Humidity;BMP_temperature;BMP_pressure;BME280_temperature;BME280_humidity;BME280_pressure;Samples;Min_cycle;Max_cycle;Signal;HPM_P1;HPM_P2
2023/04/13 00:00:46;;;;;;;2.35;0.55;;;4.80;99.90;;;;;;5007319;28;20027;-64
2023/04/13 00:03:15;;;;;;;5.30;0.50;;;4.90;99.90;;;;;;5010547;28;20503;-64
2023/04/13 00:05:41;;;;;;;1.08;0.52;;;5.00;99.90;;;;;;5005876;28;20890;-64
2023/04/13 00:08:08;;;;;;;3.28;0.50;;;5.00;99.90;;;;;;5007613;28;20025;-65
2023/04/13 00:10:34;;;;;;;3.60;0.70;;;5.10;99.90;;;;;;5008728;28;20034;-63
2023/04/13 00:13:04;;;;;;;1.92;0.45;;;5.10;99.90;;;;;;5010694;28;20733;-65
2023/04/13 00:15:30;;;;;;;4.03;0.77;;;5.20;99.90;;;;;;5005573;28;20034;-64
2023/04/13 00:17:56;;;;;;;0.52;0.43;;;5.40;99.90;;;;;;5010061;28;20030;-64
2023/04/13 00:20:22;;;;;;;3.13;0.70;;;5.40;99.90;;;;;;5005799;28;21724;-64
2023/04/13 00:22:48;;;;;;;2.60;0.50;;;5.40;99.90;;;;;;5006325;28;20030;-63
2023/04/13 00:25:15;;;;;;;8.93;0.82;;;5.50;99.90;;;;;;4978606;28;20036;-63
2023/04/13 00:27:42;;;;;;;1.00;0.52;;;5.70;99.90;;;;;;5006042;28;20052;-64
2023/04/13 00:30:09;;;;;;;0.60;0.40;;;5.80;99.90;;;;;;5007380;28;20032;-63
2023/04/13 00:32:36;;;;;;;0.57;0.35;;;5.90;99.90;;;;;;5006524;28;20038;-63
2023/04/13 00:35:03;;;;;;;7.13;1.00;;;6.00;99.90;;;;;;4991862;28;20046;-64
2023/04/13 00:37:29;;;;;;;1.88;0.38;;;6.10;99.90;;;;;;5006627;28;20065;-62
2023/04/13 00:39:55;;;;;;;3.05;0.82;;;6.10;99.90;;;;;;5020614;28;20068;-62
2023/04/13 00:42:21;;;;;;;1.52;0.45;;;6.20;99.90;;;;;;5004561;28;20056;-62
2023/04/13 00:44:46;;;;;;;1.92;0.40;;;6.20;99.90;;;;;;5005869;28;20029;-63
2023/04/13 00:47:16;;;;;;;1.85;0.60;;;6.40;99.90;;;;;;5025046;28;20109;-64
2023/04/13 00:49:43;;;;;;;1.95;0.52;;;6.40;99.90;;;;;;5006479;28;20027;-64
2023/04/13 00:52:10;;;;;;;1.83;0.60;;;6.40;99.90;;;;;;5007308;28;20623;-64
2023/04/13 00:54:37;;;;;;;4.47;1.15;;;6.40;99.90;;;;;;5006786;28;20622;-64
2023/04/13 00:57:04;;;;;;;1.92;0.63;;;6.50;99.90;;;;;;5007509;28;20164;-64
2023/04/13 00:59:30;;;;;;;1.27;0.30;;;6.50;99.90;;;;;;4984648;28;20111;-65
2023/04/13 01:01:56;;;;;;;2.65;0.55;;;6.50;99.90;;;;;;5006305;28;20049;-64
2023/04/13 01:04:26;;;;;;;1.95;0.57;;;6.50;99.90;;;;;;5011405;28;20092;-64
2023/04/13 01:07:29;;;;;;;2.83;0.32;;;6.60;99.90;;;;;;5006116;28;20022;-62
2023/04/13 01:10:05;;;;;;;4.80;0.60;;;6.60;99.90;;;;;;5009973;28;20030;-65
2023/04/13 01:12:31;;;;;;;0.63;0.32;;;6.60;99.90;;;;;;5006716;28;20034;-65
2023/04/13 01:15:08;;;;;;;2.30;0.63;;;6.60;99.90;;;;;;5008763;28;21823;-65
2023/04/13 01:17:36;;;;;;;3.33;0.47;;;6.70;99.90;;;;;;5006746;28;20037;-65
2023/04/13 01:20:16;;;;;;;3.97;0.60;;;6.70;99.90;;;;;;5013415;28;20033;-64
2023/04/13 01:22:46;;;;;;;1.95;0.68;;;6.70;99.90;;;;;;5007797;28;20372;-63
2023/04/13 01:25:36;;;;;;;3.50;0.70;;;6.70;99.90;;;;;;5007983;28;20026;-64
2023/04/13 01:28:16;;;;;;;0.88;0.28;;;6.70;99.90;;;;;;5009509;28;20030;-64
2023/04/13 01:30:43;;;;;;;1.73;0.43;;;6.70;99.90;;;;;;5005744;28;20118;-63
2023/04/13 01:33:10;;;;;;;6.13;0.52;;;6.70;99.90;;;;;;5008818;28;20932;-63
2023/04/13 01:35:37;;;;;;;0.68;0.40;;;6.70;99.90;;;;;;4984289;28;20054;-65
2023/04/13 01:38:05;;;;;;;6.70;0.70;;;6.70;99.90;;;;;;5002491;28;20042;-64
2023/04/13 01:40:35;;;;;;;4.38;1.40;;;6.70;99.90;;;;;;5004117;28;20036;-64
2023/04/13 01:43:01;;;;;;;3.30;0.60;;;6.70;99.90;;;;;;5007809;28;20048;-63
2023/04/13 01:45:35;;;;;;;10.27;1.08;;;6.80;99.90;;;;;;5007990;28;20751;-62
2023/04/13 01:48:23;;;;;;;;;;;6.80;99.90;;;;;;5008026;28;20173;-62
2023/04/13 01:51:07;;;;;;;2.58;0.57;;;6.80;99.90;;;;;;5027590;28;19961;-64
2023/04/13 01:53:56;;;;;;;1.88;0.55;;;6.90;99.90;;;;;;5008671;28;20562;-63
2023/04/13 01:56:22;;;;;;;2.83;0.40;;;6.90;99.90;;;;;;5023969;28;20037;-65
2023/04/13 01:58:55;;;;;;;1.33;0.82;;;6.80;99.90;;;;;;4987535;28;20045;-62
2023/04/13 02:01:20;;;;;;;2.53;0.50;;;6.80;99.90;;;;;;5009827;28;20033;-64
2023/04/13 02:03:47;;;;;;;2.03;0.70;;;6.80;99.90;;;;;;5014470;28;20026;-64
2023/04/13 02:06:13;;;;;;;3.20;0.95;;;6.80;99.90;;;;;;5005006;28;20018;-63
2023/04/13 02:08:39;;;;;;;3.67;0.95;;;6.90;99.90;;;;;;5013975;28;20029;-64
2023/04/13 02:11:06;;;;;;;3.38;0.60;;;6.90;99.90;;;;;;5009135;28;20092;-65
2023/04/13 02:13:33;;;;;;;5.93;0.88;;;6.90;99.90;;;;;;5012990;28;20032;-64
2023/04/13 02:15:58;;;;;;;4.53;0.50;;;6.90;99.90;;;;;;5008238;28;20027;-64
2023/04/13 02:18:24;;;;;;;1.00;0.40;;;6.90;99.90;;;;;;5013903;28;20033;-65
2023/04/13 02:21:06;;;;;;;1.38;0.30;;;6.90;99.90;;;;;;5008813;28;20023;-64
2023/04/13 02:23:33;;;;;;;2.63;0.47;;;6.90;99.90;;;;;;5028671;28;20034;-64
2023/04/13 02:25:59;;;;;;;2.05;0.63;;;6.90;99.90;;;;;;5007898;28;20032;-64
2023/04/13 02:28:26;;;;;;;3.67;0.80;;;6.80;99.90;;;;;;5027526;28;20030;-63
2023/04/13 02:30:53;;;;;;;2.20;0.60;;;6.80;99.90;;;;;;5023393;28;20681;-63
2023/04/13 02:33:20;;;;;;;1.42;0.43;;;6.80;99.90;;;;;;5012556;28;20029;-63
2023/04/13 02:35:49;;;;;;;1.63;0.43;;;6.90;99.90;;;;;;4981540;28;20112;-63
2023/04/13 02:38:15;;;;;;;2.30;0.38;;;6.90;99.90;;;;;;5012524;28;20112;-64
2023/04/13 02:40:42;;;;;;;8.73;0.98;;;6.90;99.90;;;;;;5001065;28;20068;-64
2023/04/13 02:43:08;;;;;;;4.22;0.75;;;6.90;99.90;;;;;;5007917;28;20033;-64
2023/04/13 02:45:35;;;;;;;0.90;0.40;;;6.90;99.90;;;;;;5011200;28;20245;-64
2023/04/13 02:48:01;;;;;;;3.05;0.43;;;6.90;99.90;;;;;;5007342;28;20127;-63
2023/04/13 02:50:26;;;;;;;1.10;0.38;;;6.90;99.90;;;;;;5009536;28;20029;-63
2023/04/13 02:52:52;;;;;;;7.78;1.30;;;6.90;99.90;;;;;;5011303;28;20030;-63
2023/04/13 02:55:19;;;;;;;4.50;0.70;;;6.90;99.90;;;;;;5007659;28;20141;-64
2023/04/13 02:57:45;;;;;;;3.50;0.70;;;6.90;99.90;;;;;;5001280;28;20021;-63
2023/04/13 03:00:12;;;;;;;3.78;0.55;;;6.90;99.90;;;;;;5010548;28;21073;-64
2023/04/13 03:02:38;;;;;;;0.43;0.15;;;6.90;99.90;;;;;;5011371;28;20045;-62
2023/04/13 03:05:07;;;;;;;3.42;0.60;;;6.90;99.90;;;;;;5011580;28;20030;-63
2023/04/13 03:07:34;;;;;;;3.80;1.65;;;6.90;99.90;;;;;;5002450;28;20491;-65
2023/04/13 03:10:03;;;;;;;1.58;0.60;;;6.90;99.90;;;;;;5014566;28;20440;-65
2023/04/13 03:12:30;;;;;;;0.75;0.25;;;6.90;99.90;;;;;;5009661;28;20034;-65
2023/04/13 03:14:55;;;;;;;1.45;0.40;;;6.90;99.90;;;;;;5012493;28;20112;-65
2023/04/13 03:17:21;;;;;;;1.10;0.43;;;6.90;99.90;;;;;;5011392;28;20112;-64
2023/04/13 03:19:48;;;;;;;1.05;0.30;;;7.00;99.90;;;;;;5011867;28;20052;-64
2023/04/13 03:22:14;;;;;;;1.75;0.40;;;6.90;99.90;;;;;;5006855;28;20026;-64
2023/04/13 03:24:40;;;;;;;2.92;0.60;;;7.00;99.90;;;;;;5013949;28;20029;-65
2023/04/13 03:27:06;;;;;;;3.63;0.95;;;7.00;99.90;;;;;;5006234;28;20022;-65
2023/04/13 03:29:32;;;;;;;2.75;0.57;;;7.00;99.90;;;;;;5011089;28;20038;-64
2023/04/13 03:31:57;;;;;;;5.25;0.55;;;7.00;99.90;;;;;;5006134;28;20052;-64
2023/04/13 03:34:23;;;;;;;0.40;0.30;;;7.00;99.90;;;;;;5011977;28;20557;-63
2023/04/13 03:36:48;;;;;;;1.00;0.38;;;7.00;99.90;;;;;;4995884;28;20073;-63
2023/04/13 03:39:14;;;;;;;5.32;0.82;;;7.00;99.90;;;;;;5008996;28;20787;-63
2023/04/13 03:41:40;;;;;;;3.35;0.75;;;7.00;99.90;;;;;;5025120;28;20038;-65
2023/04/13 03:44:07;;;;;;;1.60;0.50;;;6.90;99.90;;;;;;5010646;28;20491;-63
2023/04/13 03:46:35;;;;;;;2.40;0.60;;;6.90;99.90;;;;;;5006917;28;20021;-63
2023/04/13 03:49:01;;;;;;;1.48;0.50;;;6.90;99.90;;;;;;5009984;28;20037;-64
2023/04/13 03:51:26;;;;;;;2.80;0.70;;;6.90;99.90;;;;;;5009170;28;20037;-64
2023/04/13 03:53:52;;;;;;;3.25;0.63;;;6.90;99.90;;;;;;5010193;28;20030;-64
2023/04/13 03:56:18;;;;;;;1.25;0.43;;;6.90;99.90;;;;;;5009095;28;20107;-65
2023/04/13 03:58:43;;;;;;;5.43;0.70;;;6.90;99.90;;;;;;4984091;28;20656;-65
2023/04/13 04:01:09;;;;;;;3.88;0.60;;;6.90;99.90;;;;;;5008481;28;20037;-65
2023/04/13 04:03:37;;;;;;;7.28;0.57;;;6.90;99.90;;;;;;5011540;28;20052;-65
2023/04/13 04:06:03;;;;;;;6.07;1.20;;;6.90;99.90;;;;;;5007302;28;20760;-63
2023/04/13 04:08:29;;;;;;;2.63;0.65;;;7.00;99.90;;;;;;5012742;28;20029;-63
2023/04/13 04:10:54;;;;;;;4.43;0.50;;;7.00;99.90;;;;;;5008367;28;20386;-65
2023/04/13 04:13:20;;;;;;;1.92;0.40;;;7.00;99.90;;;;;;5004639;28;20022;-65
2023/04/13 04:15:46;;;;;;;5.65;0.85;;;7.00;99.90;;;;;;5006644;28;20029;-64
2023/04/13 04:18:12;;;;;;;6.93;0.85;;;7.00;99.90;;;;;;5010543;28;20036;-64
2023/04/13 04:20:37;;;;;;;2.97;1.52;;;7.00;99.90;;;;;;5005400;28;20471;-64
2023/04/13 04:23:04;;;;;;;4.80;0.50;;;7.00;99.90;;;;;;5008336;28;20324;-65
2023/04/13 04:25:31;;;;;;;3.78;0.63;;;7.10;99.90;;;;;;5007147;28;20010;-64
2023/04/13 04:27:57;;;;;;;1.80;0.40;;;7.10;99.90;;;;;;5007701;28;20024;-62
2023/04/13 04:30:28;;;;;;;2.63;0.50;;;7.10;99.90;;;;;;5003741;28;20029;-63
2023/04/13 04:32:57;;;;;;;5.97;0.55;;;7.10;99.90;;;;;;5009352;28;20406;-63
2023/04/13 04:35:32;;;;;;;4.30;0.70;;;7.00;99.90;;;;;;5006449;28;20396;-64
2023/04/13 04:38:00;;;;;;;4.68;1.40;;;7.10;99.90;;;;;;5007997;28;20057;-63
2023/04/13 04:40:26;;;;;;;1.50;0.40;;;7.10;99.90;;;;;;5007296;28;20484;-64
2023/04/13 04:42:52;;;;;;;3.80;1.00;;;7.10;99.90;;;;;;5010019;28;20061;-64
2023/04/13 04:45:19;;;;;;;2.15;0.70;;;7.10;99.90;;;;;;5006423;28;20061;-64
2023/04/13 04:47:47;;;;;;;2.40;0.50;;;7.10;99.90;;;;;;5005443;28;20029;-64
2023/04/13 04:50:13;;;;;;;2.47;0.55;;;7.20;99.90;;;;;;5011184;28;20105;-64
2023/04/13 04:52:39;;;;;;;3.40;0.40;;;7.20;99.90;;;;;;5005915;28;20113;-65
2023/04/13 04:55:05;;;;;;;5.25;0.68;;;7.20;99.90;;;;;;5006456;28;20040;-63
2023/04/13 04:57:33;;;;;;;2.70;0.50;;;7.20;99.90;;;;;;5006246;28;20061;-63
2023/04/13 04:59:59;;;;;;;2.08;0.52;;;7.30;99.90;;;;;;4986347;28;20100;-64
2023/04/13 05:02:25;;;;;;;1.55;0.47;;;7.30;99.90;;;;;;5001793;28;20018;-64
2023/04/13 05:04:52;;;;;;;2.30;0.60;;;7.30;99.90;;;;;;5009083;28;20032;-65
2023/04/13 05:07:17;;;;;;;4.25;1.92;;;7.30;99.90;;;;;;5008089;28;20026;-65
2023/04/13 05:09:44;;;;;;;2.67;0.25;;;7.30;99.90;;;;;;5009993;28;20029;-65
2023/04/13 05:12:10;;;;;;;2.10;0.52;;;7.30;99.90;;;;;;5003895;28;20084;-64
2023/04/13 05:14:36;;;;;;;1.10;0.32;;;7.30;99.90;;;;;;5012417;28;20060;-65
2023/04/13 05:17:01;;;;;;;2.28;0.43;;;7.30;99.90;;;;;;5007005;28;20062;-64
2023/04/13 05:19:27;;;;;;;5.90;0.75;;;7.30;99.90;;;;;;5013448;28;20029;-65
2023/04/13 05:21:53;;;;;;;0.93;0.45;;;7.40;99.90;;;;;;5004304;28;20152;-65
2023/04/13 05:24:19;;;;;;;3.05;0.60;;;7.40;99.90;;;;;;5011673;28;20505;-65
2023/04/13 05:26:44;;;;;;;1.67;0.57;;;7.40;99.90;;;;;;5016741;28;20022;-63
2023/04/13 05:29:10;;;;;;;4.97;0.60;;;7.40;99.90;;;;;;5015410;28;20026;-64
2023/04/13 05:31:36;;;;;;;1.17;0.40;;;7.40;99.90;;;;;;5016131;28;20449;-64
2023/04/13 05:34:02;;;;;;;5.35;0.57;;;7.50;99.90;;;;;;5019805;28;20036;-64
2023/04/13 05:36:30;;;;;;;2.30;0.40;;;7.50;99.90;;;;;;4988098;28;20511;-65
2023/04/13 05:39:00;;;;;;;2.35;0.28;;;7.50;99.90;;;;;;5013057;28;20029;-65
2023/04/13 05:41:26;;;;;;;1.75;0.38;;;7.60;99.90;;;;;;5010039;28;20037;-65
2023/04/13 05:43:51;;;;;;;3.85;0.80;;;7.60;99.90;;;;;;5013585;28;20026;-65
2023/04/13 05:46:17;;;;;;;1.17;0.35;;;7.60;99.90;;;;;;5012482;28;20502;-64
2023/04/13 05:48:43;;;;;;;1.92;0.50;;;7.60;99.90;;;;;;5017132;28;20468;-64
2023/04/13 05:51:10;;;;;;;3.25;0.73;;;7.60;99.90;;;;;;5009666;28;20037;-65
2023/04/13 05:53:35;;;;;;;3.30;0.40;;;7.70;99.90;;;;;;5011603;28;20040;-64
2023/04/13 05:56:01;;;;;;;1.58;0.47;;;7.60;99.90;;;;;;5010836;28;20483;-65
2023/04/13 05:58:26;;;;;;;1.83;0.52;;;7.70;99.90;;;;;;4991664;28;20049;-64
2023/04/13 06:00:52;;;;;;;1.85;0.20;;;7.70;99.90;;;;;;5010500;28;20522;-63
2023/04/13 06:03:19;;;;;;;2.05;0.60;;;7.70;99.90;;;;;;5012456;28;20539;-65
2023/04/13 06:05:45;;;;;;;0.52;0.30;;;7.80;99.90;;;;;;5013426;28;20767;-63
2023/04/13 06:08:12;;;;;;;0.95;0.32;;;7.90;99.90;;;;;;5015980;28;20025;-63
2023/04/13 06:10:38;;;;;;;3.20;1.02;;;7.80;99.90;;;;;;5009998;28;20097;-65
2023/04/13 06:13:04;;;;;;;2.20;0.50;;;7.80;99.90;;;;;;5015150;28;20438;-66
2023/04/13 06:15:30;;;;;;;4.18;0.40;;;7.80;99.90;;;;;;5011869;28;21055;-66
2023/04/13 06:17:56;;;;;;;0.95;0.52;;;7.80;99.90;;;;;;5018028;28;20033;-64
2023/04/13 06:20:22;;;;;;;6.95;1.02;;;7.90;99.90;;;;;;5014213;28;20442;-65
2023/04/13 06:22:48;;;;;;;1.10;0.30;;;7.80;99.90;;;;;;5009632;28;20395;-66
2023/04/13 06:25:15;;;;;;;0.70;0.25;;;7.80;99.90;;;;;;5013786;28;20083;-65
2023/04/13 06:27:42;;;;;;;2.30;0.30;;;7.80;99.90;;;;;;5013752;28;20041;-65
2023/04/13 06:30:09;;;;;;;0.73;0.20;;;7.90;99.90;;;;;;5009788;28;20052;-66
2023/04/13 06:32:35;;;;;;;1.50;0.22;;;7.90;99.90;;;;;;5017908;28;20025;-65
2023/04/13 06:35:02;;;;;;;1.75;0.30;;;8.00;99.90;;;;;;5017567;28;20400;-65
2023/04/13 06:37:27;;;;;;;0.10;0.10;;;8.00;99.90;;;;;;4987992;28;20050;-66
2023/04/13 06:39:53;;;;;;;1.65;0.45;;;8.00;99.90;;;;;;5011821;28;20213;-66
2023/04/13 06:42:19;;;;;;;2.88;0.88;;;8.10;99.90;;;;;;5009517;28;20026;-65
2023/04/13 06:44:45;;;;;;;2.80;1.20;;;8.20;99.90;;;;;;5010221;28;20034;-66
2023/04/13 06:47:10;;;;;;;1.48;0.68;;;8.20;99.90;;;;;;5011193;28;20033;-66
2023/04/13 06:49:36;;;;;;;2.47;0.38;;;8.20;99.90;;;;;;5007542;28;20465;-66
2023/04/13 06:52:01;;;;;;;2.55;0.55;;;8.10;99.90;;;;;;5011097;28;20030;-66
2023/04/13 06:54:27;;;;;;;2.15;0.50;;;8.00;99.90;;;;;;5011279;28;20157;-67
2023/04/13 06:56:53;;;;;;;22.23;8.55;;;8.00;99.90;;;;;;5009404;28;20026;-66
2023/04/13 06:59:18;;;;;;;20.60;7.82;;;7.90;99.90;;;;;;4987692;28;20124;-66
2023/04/13 07:01:44;;;;;;;5.28;1.98;;;7.90;99.90;;;;;;5008222;28;20403;-66
2023/04/13 07:04:10;;;;;;;39.35;15.82;;;8.10;99.90;;;;;;5011875;28;20029;-66
2023/04/13 07:06:35;;;;;;;19.90;9.40;;;8.10;99.90;;;;;;5007077;28;20026;-66
2023/04/13 07:09:01;;;;;;;3.53;1.75;;;8.20;99.90;;;;;;5011972;28;20053;-66
2023/04/13 07:11:27;;;;;;;4.50;1.70;;;8.30;99.90;;;;;;5010434;28;20018;-66
2023/04/13 07:13:52;;;;;;;6.57;3.00;;;8.40;99.90;;;;;;5010656;28;20093;-66
2023/04/13 07:16:18;;;;;;;23.52;7.80;;;8.40;99.90;;;;;;5007668;28;20041;-65
2023/04/13 07:18:43;;;;;;;10.38;4.75;;;8.50;99.90;;;;;;5007361;28;20388;-65
2023/04/13 07:27:53;;;;;;;10.48;5.32;;;10.10;99.90;;;;;;4974236;28;20108;-66
2023/04/13 07:30:19;;;;;;;3.67;1.90;;;10.70;99.90;;;;;;5010046;28;20464;-66
2023/04/13 07:32:45;;;;;;;3.45;1.65;;;11.10;99.90;;;;;;5004656;28;20014;-66
2023/04/13 07:35:11;;;;;;;3.25;1.17;;;11.20;99.90;;;;;;5010784;28;20431;-67
2023/04/13 07:37:36;;;;;;;6.35;2.30;;;10.90;99.90;;;;;;4992769;28;20084;-66
2023/04/13 07:40:03;;;;;;;8.32;2.85;;;10.70;99.90;;;;;;5008689;28;20037;-66
2023/04/13 07:42:28;;;;;;;2.38;0.93;;;10.60;99.90;;;;;;5005397;28;20100;-66
2023/04/13 07:44:57;;;;;;;2.58;0.60;;;10.50;99.90;;;;;;5011360;28;20472;-66
2023/04/13 07:47:23;;;;;;;4.72;0.40;;;10.40;99.90;;;;;;5004253;28;20451;-66
2023/04/13 07:49:48;;;;;;;0.50;0.47;;;10.50;99.90;;;;;;5011239;28;20061;-66
2023/04/13 07:52:14;;;;;;;0.47;0.47;;;10.70;99.90;;;;;;5006642;28;20037;-66
2023/04/13 07:54:40;;;;;;;1.08;0.52;;;10.70;99.90;;;;;;5010540;28;20384;-66
2023/04/13 07:57:05;;;;;;;0.50;0.50;;;10.50;99.90;;;;;;5007572;28;20033;-66
2023/04/13 07:59:31;;;;;;;0.75;0.75;;;10.90;99.90;;;;;;4982962;28;20042;-66
2023/04/13 08:01:57;;;;;;;0.52;0.50;;;11.20;99.90;;;;;;5008140;28;20491;-66
2023/04/13 08:04:23;;;;;;;0.55;0.50;;;11.60;99.90;;;;;;5011037;28;20022;-66
2023/04/13 08:06:48;;;;;;;0.57;0.50;;;11.30;99.90;;;;;;5007665;28;20080;-66
2023/04/13 08:09:14;;;;;;;1.50;0.60;;;11.10;99.90;;;;;;5008697;28;20026;-66
2023/04/13 08:11:41;;;;;;;1.83;0.80;;;11.10;99.90;;;;;;5004235;28;20510;-66
2023/04/13 08:14:08;;;;;;;0.88;0.50;;;11.00;99.90;;;;;;5007297;28;20070;-65
2023/04/13 08:16:34;;;;;;;4.85;2.58;;;11.10;99.90;;;;;;5006479;28;20029;-66
2023/04/13 08:19:00;;;;;;;1.70;1.20;;;10.60;99.90;;;;;;5011429;28;20029;-65
2023/04/13 08:21:27;;;;;;;1.58;0.43;;;10.40;99.90;;;;;;5005432;28;20388;-66
2023/04/13 08:23:53;;;;;;;2.50;0.60;;;9.90;99.90;;;;;;5011729;28;20014;-66
2023/04/13 08:26:20;;;;;;;1.95;0.22;;;9.90;99.90;;;;;;5004338;28;20025;-65
2023/04/13 08:28:49;;;;;;;3.35;0.60;;;9.70;99.90;;;;;;5011627;28;20021;-65
2023/04/13 08:31:15;;;;;;;1.42;0.88;;;9.50;99.90;;;;;;5007580;28;20029;-66
2023/04/13 08:33:42;;;;;;;2.50;0.70;;;9.40;99.90;;;;;;5009216;28;20034;-67
2023/04/13 08:36:08;;;;;;;0.52;0.40;;;9.40;99.90;;;;;;5010204;28;20053;-66
2023/04/13 08:38:34;;;;;;;1.98;0.70;;;9.30;99.90;;;;;;4993170;28;20072;-65
2023/04/13 08:41:02;;;;;;;4.28;0.73;;;9.20;99.90;;;;;;5002248;28;20201;-66
2023/04/13 08:43:27;;;;;;;2.78;1.25;;;9.20;99.90;;;;;;5009292;28;20407;-66
2023/04/13 08:45:53;;;;;;;2.22;1.17;;;9.20;99.90;;;;;;5005394;28;20209;-66
2023/04/13 08:48:21;;;;;;;3.05;1.52;;;9.20;99.90;;;;;;5003450;28;20391;-66
2023/04/13 08:50:51;;;;;;;3.78;1.40;;;9.20;99.90;;;;;;5005037;28;20030;-66
2023/04/13 08:53:17;;;;;;;2.08;1.15;;;9.20;99.90;;;;;;5005403;28;20510;-66
2023/04/13 08:55:44;;;;;;;1.98;0.75;;;9.30;99.90;;;;;;5006598;28;20034;-66
2023/04/13 08:58:11;;;;;;;3.13;1.40;;;9.40;99.90;;;;;;5008505;28;20543;-66
2023/04/13 09:00:39;;;;;;;7.90;4.82;;;9.50;99.90;;;;;;5007948;28;20037;-66
2023/04/13 09:03:06;;;;;;;6.50;1.50;;;9.50;99.90;;;;;;5008925;28;20382;-66
2023/04/13 09:05:37;;;;;;;11.60;2.42;;;9.50;99.90;;;;;;5008961;28;20022;-66
2023/04/13 09:08:06;;;;;;;2.25;1.20;;;9.30;99.90;;;;;;5008429;28;20530;-66
2023/04/13 09:10:32;;;;;;;6.25;2.38;;;9.40;99.90;;;;;;5002944;28;20030;-66
2023/04/13 09:12:58;;;;;;;11.43;3.72;;;9.50;99.90;;;;;;4998966;28;20030;-66
2023/04/13 09:15:24;;;;;;;6.45;2.45;;;9.70;99.90;;;;;;5012181;28;20036;-66
2023/04/13 09:17:50;;;;;;;8.75;3.25;;;9.70;99.90;;;;;;5002200;28;20029;-65
2023/04/13 09:20:21;;;;;;;6.68;1.35;;;9.80;99.90;;;;;;5007312;28;20479;-66
2023/04/13 09:22:49;;;;;;;3.28;1.13;;;9.80;99.90;;;;;;5009727;28;20072;-66
2023/04/13 09:25:26;;;;;;;4.22;0.70;;;9.70;99.90;;;;;;5008364;28;20040;-65
2023/04/13 09:27:52;;;;;;;6.60;1.00;;;9.50;99.90;;;;;;5009380;28;20029;-65
2023/04/13 09:30:19;;;;;;;2.53;1.38;;;9.60;99.90;;;;;;5007073;28;20403;-66
2023/04/13 09:32:45;;;;;;;2.72;1.10;;;9.50;99.90;;;;;;4999375;28;20476;-66
2023/04/13 09:35:12;;;;;;;7.30;1.52;;;9.60;99.90;;;;;;5001535;28;20113;-65
2023/04/13 09:37:42;;;;;;;12.05;1.83;;;9.50;99.90;;;;;;5009573;28;20108;-66
2023/04/13 09:40:17;;;;;;;7.40;1.55;;;9.60;99.90;;;;;;4984063;28;20088;-65
2023/04/13 09:43:03;;;;;;;13.35;3.17;;;9.80;99.90;;;;;;5004195;28;20023;-66
2023/04/13 09:45:43;;;;;;;7.35;1.33;;;9.90;99.90;;;;;;4998437;28;20033;-66
2023/04/13 09:48:20;;;;;;;8.40;1.85;;;10.10;99.90;;;;;;5002511;28;20026;-65
2023/04/13 09:50:56;;;;;;;8.57;1.10;;;10.30;99.90;;;;;;5000346;28;20032;-66
2023/04/13 09:53:22;;;;;;;6.20;1.48;;;10.60;99.90;;;;;;5004722;28;20031;-66
2023/04/13 09:55:56;;;;;;;7.32;2.13;;;10.90;99.90;;;;;;5001278;28;20510;-65
2023/04/13 09:58:22;;;;;;;6.05;1.20;;;11.10;99.90;;;;;;5004530;28;20026;-65
2023/04/13 10:00:47;;;;;;;6.25;2.40;;;11.30;99.90;;;;;;5006569;28;20037;-66
2023/04/13 10:03:14;;;;;;;4.47;2.08;;;12.10;99.90;;;;;;4998271;28;20030;-66
2023/04/13 10:05:44;;;;;;;4.22;1.42;;;12.40;99.90;;;;;;5003745;28;20050;-65
2023/04/13 10:08:09;;;;;;;5.43;1.40;;;12.30;99.90;;;;;;5008306;28;20024;-65
2023/04/13 10:10:36;;;;;;;6.70;1.92;;;12.20;99.90;;;;;;5000948;28;20261;-66
2023/04/13 10:13:09;;;;;;;3.95;1.50;;;12.40;99.90;;;;;;5007634;28;20476;-66
2023/04/13 10:15:50;;;;;;;6.72;2.13;;;12.40;99.90;;;;;;5005377;28;20116;-68
2023/04/13 10:18:42;;;;;;;7.05;1.70;;;12.30;99.90;;;;;;5006598;28;20052;-66
2023/04/13 10:21:08;;;;;;;4.10;1.13;;;12.20;99.90;;;;;;5008880;28;20057;-64
2023/04/13 10:23:37;;;;;;;17.63;6.50;;;11.70;99.90;;;;;;5009193;28;20711;-66
2023/04/13 10:26:05;;;;;;;8.70;2.28;;;11.00;99.90;;;;;;5005312;28;20117;-65
2023/04/13 10:28:51;;;;;;;13.52;5.20;;;10.40;99.90;;;;;;5010505;28;20037;-67
2023/04/13 10:31:17;;;;;;;22.00;8.85;;;10.00;99.90;;;;;;5008827;28;20099;-66
2023/04/13 10:33:49;;;;;;;26.20;8.90;;;9.60;99.90;;;;;;5011098;28;20019;-65
2023/04/13 10:36:16;;;;;;;20.38;7.65;;;9.70;99.90;;;;;;5007141;28;20033;-66
2023/04/13 10:38:43;;;;;;;13.77;5.07;;;10.00;99.90;;;;;;5012412;28;20029;-66
2023/04/13 10:41:08;;;;;;;18.45;6.32;;;10.50;99.90;;;;;;4992048;28;20049;-65
2023/04/13 10:43:34;;;;;;;7.95;2.10;;;11.00;99.90;;;;;;5007877;28;20381;-66
2023/04/13 10:46:12;;;;;;;4.05;1.15;;;11.20;99.90;;;;;;5006989;28;20099;-66
2023/04/13 10:48:40;;;;;;;8.90;2.10;;;11.60;99.90;;;;;;5008259;28;20117;-66
2023/04/13 10:51:06;;;;;;;6.13;2.10;;;11.90;99.90;;;;;;5008524;28;20391;-66
2023/04/13 10:53:33;;;;;;;5.75;2.15;;;12.60;99.90;;;;;;5009826;28;20030;-67
2023/04/13 10:56:00;;;;;;;7.38;2.28;;;13.00;99.90;;;;;;5007398;28;20560;-68
2023/04/13 10:58:28;;;;;;;7.75;2.28;;;13.20;99.90;;;;;;5007354;28;20054;-66
2023/04/13 11:00:54;;;;;;;9.95;1.88;;;13.50;99.90;;;;;;5003110;28;20038;-66
2023/04/13 11:03:20;;;;;;;18.45;4.38;;;13.50;99.90;;;;;;5010308;28;20053;-65
2023/04/13 11:05:55;;;;;;;8.88;2.45;;;13.80;99.90;;;;;;5001251;28;20022;-66
2023/04/13 11:08:20;;;;;;;6.68;2.05;;;13.90;99.90;;;;;;5011930;28;20019;-66
2023/04/13 11:10:51;;;;;;;6.15;2.22;;;14.30;99.90;;;;;;5001825;28;20036;-66
2023/04/13 11:13:17;;;;;;;12.80;3.40;;;14.40;99.90;;;;;;5010253;28;20101;-66
2023/04/13 11:15:42;;;;;;;8.50;2.03;;;14.60;99.90;;;;;;5008099;28;20036;-66
2023/04/13 11:18:08;;;;;;;11.35;2.45;;;14.30;99.90;;;;;;5013267;28;20499;-65
2023/04/13 11:20:38;;;;;;;10.43;2.50;;;14.10;99.90;;;;;;5008206;28;20068;-67
2023/04/13 11:23:14;;;;;;;6.20;1.80;;;14.10;99.90;;;;;;5008633;28;20026;-67
2023/04/13 11:26:00;;;;;;;7.45;1.92;;;13.60;98.50;;;;;;5005414;28;20109;-66
2023/04/13 11:28:40;;;;;;;6.47;1.83;;;13.30;99.50;;;;;;5008022;28;20026;-66
2023/04/13 11:31:07;;;;;;;7.53;1.85;;;13.20;98.20;;;;;;5007862;28;20104;-66
2023/04/13 11:33:33;;;;;;;9.48;1.55;;;13.00;99.40;;;;;;5011974;28;20109;-67
2023/04/13 11:35:59;;;;;;;12.63;2.55;;;12.90;99.00;;;;;;5006272;28;20121;-66
2023/04/13 11:38:26;;;;;;;8.05;2.83;;;13.20;99.10;;;;;;5004432;28;20044;-67
2023/04/13 11:40:58;;;;;;;9.80;2.42;;;13.20;99.00;;;;;;4985822;28;20116;-66
2023/04/13 11:43:24;;;;;;;5.40;2.58;;;13.40;98.90;;;;;;5009799;28;20125;-67
2023/04/13 11:45:51;;;;;;;13.15;2.38;;;13.30;98.10;;;;;;5010145;28;20085;-67
2023/04/13 11:48:17;;;;;;;9.85;2.92;;;13.00;98.90;;;;;;5006719;28;20421;-66
2023/04/13 11:50:43;;;;;;;17.30;3.13;;;12.80;99.30;;;;;;5000412;28;20062;-67
2023/04/13 11:53:09;;;;;;;15.68;2.78;;;12.60;99.40;;;;;;5004200;28;20050;-66
2023/04/13 11:55:37;;;;;;;13.38;4.28;;;12.60;99.90;;;;;;5000759;28;20084;-66
2023/04/13 11:58:10;;;;;;;8.05;2.70;;;12.40;99.90;;;;;;5004676;28;20060;-66
2023/04/13 12:00:39;;;;;;;8.63;2.10;;;12.20;99.90;;;;;;5003539;28;20113;-66
2023/04/13 12:03:13;;;;;;;11.30;2.53;;;12.10;99.90;;;;;;5009605;28;20113;-66
2023/04/13 12:05:40;;;;;;;6.72;2.30;;;12.00;99.90;;;;;;5002441;28;20034;-66
2023/04/13 12:08:07;;;;;;;11.60;2.65;;;11.90;99.90;;;;;;5006074;28;20026;-66
2023/04/13 12:10:34;;;;;;;14.13;3.30;;;11.90;99.90;;;;;;5006976;28;20022;-66
2023/04/13 12:13:00;;;;;;;12.23;3.15;;;12.10;99.90;;;;;;5007670;28;20026;-66
2023/04/13 12:15:28;;;;;;;7.47;2.47;;;12.10;99.90;;;;;;5006546;28;20087;-66
2023/04/13 12:17:54;;;;;;;13.50;2.45;;;12.30;99.90;;;;;;5012300;28;20026;-65
2023/04/13 12:20:20;;;;;;;13.68;3.70;;;12.50;99.90;;;;;;5010945;28;20479;-68
2023/04/13 12:22:46;;;;;;;8.90;1.88;;;12.70;99.90;;;;;;5008850;28;20041;-66
2023/04/13 12:25:15;;;;;;;12.73;3.58;;;13.00;99.90;;;;;;5004563;28;20918;-67
2023/04/13 12:27:41;;;;;;;8.02;2.13;;;13.30;99.90;;;;;;5007466;28;20033;-67
2023/04/13 12:30:14;;;;;;;14.70;4.00;;;13.50;98.60;;;;;;5011728;28;20543;-66
2023/04/13 12:32:43;;;;;;;11.55;3.88;;;13.50;97.50;;;;;;5004096;28;20038;-66
2023/04/13 12:35:08;;;;;;;11.23;2.65;;;13.60;98.60;;;;;;5010456;28;20026;-66
2023/04/13 12:37:41;;;;;;;7.35;2.60;;;13.90;97.20;;;;;;5002207;28;20030;-66
2023/04/13 12:40:13;;;;;;;10.73;2.13;;;14.20;97.20;;;;;;4989196;28;20026;-67
2023/04/13 12:42:39;;;;;;;13.90;3.17;;;14.20;96.90;;;;;;5008952;28;20030;-66
2023/04/13 12:45:06;;;;;;;5.82;1.77;;;14.60;96.90;;;;;;5010708;28;20083;-66
2023/04/13 12:47:31;;;;;;;7.43;1.80;;;14.70;95.30;;;;;;5004508;28;20022;-67
2023/04/13 12:49:57;;;;;;;7.43;2.45;;;14.40;95.00;;;;;;5004180;28;20029;-67
2023/04/13 12:52:23;;;;;;;8.43;2.22;;;14.30;94.90;;;;;;5004733;28;20495;-66
2023/04/13 12:54:48;;;;;;;8.65;2.30;;;14.00;95.20;;;;;;5005912;28;20138;-67
2023/04/13 12:57:16;;;;;;;8.75;2.17;;;13.70;95.20;;;;;;5007008;28;20021;-66
2023/04/13 12:59:42;;;;;;;6.97;2.22;;;13.80;95.80;;;;;;5009017;28;20113;-67
2023/04/13 13:02:08;;;;;;;8.43;2.35;;;13.90;96.20;;;;;;5005433;28;20022;-67